sensor_id;sensor_type;location;lat;lon;timestamp;pressure;altitude;pressure_sealevel;temperature
73894;BMP280;62699;50.534;12.784;2022-09-02T00:03:45;96903.50;;;12.10
73894;BMP280;62699;50.534;12.784;2022-09-02T00:09:06;96900.09;;;12.09
73894;BMP280;62699;50.534;12.784;2022-09-02T00:14:30;96896.63;;;11.86
73894;BMP280;62699;50.534;12.784;2022-09-02T00:19:49;96890.16;;;11.62
73894;BMP280;62699;50.534;12.784;2022-09-02T00:25:10;96894.59;;;11.70
73894;BMP280;62699;50.534;12.784;2022-09-02T00:30:29;96886.97;;;11.63
73894;BMP280;62699;50.534;12.784;2022-09-02T00:35:49;96883.63;;;11.26
73894;BMP280;62699;50.534;12.784;2022-09-02T00:41:10;96882.25;;;11.53
73894;BMP280;62699;50.534;12.784;2022-09-02T00:46:31;96876.66;;;11.56
73894;BMP280;62699;50.534;12.784;2022-09-02T00:58:16;96867.25;;;11.40
73894;BMP280;62699;50.534;12.784;2022-09-02T01:03:39;96875.81;;;11.39
73894;BMP280;62699;50.534;12.784;2022-09-02T01:09:06;96876.81;;;11.36
73894;BMP280;62699;50.534;12.784;2022-09-02T01:14:27;96874.63;;;11.40
73894;BMP280;62699;50.534;12.784;2022-09-02T01:19:50;96867.47;;;11.31
73894;BMP280;62699;50.534;12.784;2022-09-02T01:25:18;96877.66;;;11.11
73894;BMP280;62699;50.534;12.784;2022-09-02T01:30:40;96875.28;;;11.29
73894;BMP280;62699;50.534;12.784;2022-09-02T01:36:00;96871.91;;;11.34
73894;BMP280;62699;50.534;12.784;2022-09-02T01:41:22;96872.53;;;11.13
73894;BMP280;62699;50.534;12.784;2022-09-02T01:46:41;96869.06;;;11.07
73894;BMP280;62699;50.534;12.784;2022-09-02T01:52:02;96867.09;;;11.01
73894;BMP280;62699;50.534;12.784;2022-09-02T01:57:22;96863.94;;;11.09
73894;BMP280;62699;50.534;12.784;2022-09-02T02:02:42;96858.91;;;10.90
73894;BMP280;62699;50.534;12.784;2022-09-02T02:08:01;96861.63;;;10.90
73894;BMP280;62699;50.534;12.784;2022-09-02T02:13:21;96852.22;;;10.75
73894;BMP280;62699;50.534;12.784;2022-09-02T02:18:40;96852.72;;;10.73
73894;BMP280;62699;50.534;12.784;2022-09-02T02:23:59;96847.63;;;10.81
73894;BMP280;62699;50.534;12.784;2022-09-02T02:29:19;96848.00;;;10.68
73894;BMP280;62699;50.534;12.784;2022-09-02T02:34:39;96842.66;;;10.74
73894;BMP280;62699;50.534;12.784;2022-09-02T02:39:58;96848.19;;;10.59
73894;BMP280;62699;50.534;12.784;2022-09-02T02:45:19;96843.22;;;10.46
73894;BMP280;62699;50.534;12.784;2022-09-02T02:50:38;96837.91;;;10.26
73894;BMP280;62699;50.534;12.784;2022-09-02T02:55:58;96842.97;;;10.19
73894;BMP280;62699;50.534;12.784;2022-09-02T03:01:17;96842.34;;;9.78
73894;BMP280;62699;50.534;12.784;2022-09-02T03:06:36;96841.50;;;9.92
73894;BMP280;62699;50.534;12.784;2022-09-02T03:11:55;96840.00;;;10.17
73894;BMP280;62699;50.534;12.784;2022-09-02T03:17:15;96829.25;;;9.91
73894;BMP280;62699;50.534;12.784;2022-09-02T03:22:35;96833.75;;;9.74
73894;BMP280;62699;50.534;12.784;2022-09-02T03:27:58;96825.06;;;9.84
73894;BMP280;62699;50.534;12.784;2022-09-02T03:33:17;96815.56;;;9.63
73894;BMP280;62699;50.534;12.784;2022-09-02T03:38:36;96818.91;;;9.58
73894;BMP280;62699;50.534;12.784;2022-09-02T03:43:55;96818.28;;;9.68
73894;BMP280;62699;50.534;12.784;2022-09-02T03:49:15;96821.41;;;9.87
73894;BMP280;62699;50.534;12.784;2022-09-02T03:54:34;96825.47;;;9.77
73894;BMP280;62699;50.534;12.784;2022-09-02T03:59:54;96821.56;;;9.78
73894;BMP280;62699;50.534;12.784;2022-09-02T04:05:13;96823.06;;;9.59
73894;BMP280;62699;50.534;12.784;2022-09-02T04:10:33;96823.06;;;9.59
73894;BMP280;62699;50.534;12.784;2022-09-02T04:15:54;96826.19;;;9.52
73894;BMP280;62699;50.534;12.784;2022-09-02T04:21:15;96823.63;;;9.43
73894;BMP280;62699;50.534;12.784;2022-09-02T04:26:35;96820.38;;;9.59
73894;BMP280;62699;50.534;12.784;2022-09-02T04:31:55;96823.22;;;9.50
73894;BMP280;62699;50.534;12.784;2022-09-02T04:37:14;96826.03;;;9.41
73894;BMP280;62699;50.534;12.784;2022-09-02T04:42:36;96823.41;;;9.46
73894;BMP280;62699;50.534;12.784;2022-09-02T04:47:56;96826.97;;;9.38
73894;BMP280;62699;50.534;12.784;2022-09-02T04:53:16;96824.41;;;9.49
73894;BMP280;62699;50.534;12.784;2022-09-02T04:58:36;96825.81;;;9.64
73894;BMP280;62699;50.534;12.784;2022-09-02T05:04:05;96834.81;;;9.82
73894;BMP280;62699;50.534;12.784;2022-09-02T05:09:28;96829.06;;;9.94
73894;BMP280;62699;50.534;12.784;2022-09-02T05:14:49;96827.69;;;9.79
73894;BMP280;62699;50.534;12.784;2022-09-02T05:20:08;96824.06;;;9.82
73894;BMP280;62699;50.534;12.784;2022-09-02T05:25:29;96822.31;;;10.04
73894;BMP280;62699;50.534;12.784;2022-09-02T05:30:47;96822.31;;;10.04
73894;BMP280;62699;50.534;12.784;2022-09-02T05:36:11;96820.78;;;9.98
73894;BMP280;62699;50.534;12.784;2022-09-02T05:41:31;96818.31;;;9.94
73894;BMP280;62699;50.534;12.784;2022-09-02T05:46:50;96815.19;;;10.01
73894;BMP280;62699;50.534;12.784;2022-09-02T05:52:11;96810.84;;;10.09
73894;BMP280;62699;50.534;12.784;2022-09-02T05:57:32;96817.66;;;10.31
73894;BMP280;62699;50.534;12.784;2022-09-02T06:02:51;96812.53;;;11.12
73894;BMP280;62699;50.534;12.784;2022-09-02T06:08:11;96815.56;;;13.44
73894;BMP280;62699;50.534;12.784;2022-09-02T06:13:33;96822.34;;;17.32
73894;BMP280;62699;50.534;12.784;2022-09-02T06:18:52;96825.13;;;20.83
73894;BMP280;62699;50.534;12.784;2022-09-02T06:24:15;96821.66;;;21.89
73894;BMP280;62699;50.534;12.784;2022-09-02T06:29:35;96822.41;;;21.65
73894;BMP280;62699;50.534;12.784;2022-09-02T06:34:55;96815.94;;;21.95
73894;BMP280;62699;50.534;12.784;2022-09-02T06:40:15;96818.63;;;22.19
73894;BMP280;62699;50.534;12.784;2022-09-02T06:45:40;96818.28;;;21.81
73894;BMP280;62699;50.534;12.784;2022-09-02T06:51:28;96816.56;;;23.25
73894;BMP280;62699;50.534;12.784;2022-09-02T06:56:49;96810.97;;;24.17
73894;BMP280;62699;50.534;12.784;2022-09-02T07:02:09;96808.88;;;25.97
73894;BMP280;62699;50.534;12.784;2022-09-02T07:07:28;96815.41;;;25.50
73894;BMP280;62699;50.534;12.784;2022-09-02T07:12:48;96815.16;;;24.46
73894;BMP280;62699;50.534;12.784;2022-09-02T07:18:06;96809.38;;;26.06
73894;BMP280;62699;50.534;12.784;2022-09-02T07:23:27;96801.31;;;28.32
73894;BMP280;62699;50.534;12.784;2022-09-02T07:28:46;96799.00;;;25.73
73894;BMP280;62699;50.534;12.784;2022-09-02T07:34:06;96803.06;;;26.15
73894;BMP280;62699;50.534;12.784;2022-09-02T07:39:27;96801.25;;;29.50
73894;BMP280;62699;50.534;12.784;2022-09-02T07:44:51;96806.31;;;27.96
73894;BMP280;62699;50.534;12.784;2022-09-02T07:50:10;96794.53;;;28.21
73894;BMP280;62699;50.534;12.784;2022-09-02T07:55:33;96801.44;;;27.83
73894;BMP280;62699;50.534;12.784;2022-09-02T08:00:54;96815.88;;;25.47
73894;BMP280;62699;50.534;12.784;2022-09-02T08:06:15;96807.91;;;26.26
73894;BMP280;62699;50.534;12.784;2022-09-02T08:11:34;96799.59;;;26.47
73894;BMP280;62699;50.534;12.784;2022-09-02T08:16:56;96812.47;;;26.77
73894;BMP280;62699;50.534;12.784;2022-09-02T08:22:16;96800.59;;;26.75
73894;BMP280;62699;50.534;12.784;2022-09-02T08:27:36;96800.72;;;25.78
73894;BMP280;62699;50.534;12.784;2022-09-02T08:32:55;96796.50;;;24.95
73894;BMP280;62699;50.534;12.784;2022-09-02T08:38:16;96793.75;;;24.16
73894;BMP280;62699;50.534;12.784;2022-09-02T08:43:38;96804.81;;;23.51
73894;BMP280;62699;50.534;12.784;2022-09-02T08:49:24;96800.75;;;22.79
73894;BMP280;62699;50.534;12.784;2022-09-02T08:54:55;96799.19;;;22.86
73894;BMP280;62699;50.534;12.784;2022-09-02T09:00:21;96801.97;;;23.22
73894;BMP280;62699;50.534;12.784;2022-09-02T09:05:56;96800.81;;;22.11
73894;BMP280;62699;50.534;12.784;2022-09-02T09:17:00;96798.41;;;21.31
73894;BMP280;62699;50.534;12.784;2022-09-02T09:22:33;96798.88;;;21.62
73894;BMP280;62699;50.534;12.784;2022-09-02T09:27:58;96792.28;;;21.16
73894;BMP280;62699;50.534;12.784;2022-09-02T09:33:20;96786.56;;;21.70
73894;BMP280;62699;50.534;12.784;2022-09-02T09:38:40;96784.91;;;21.50
73894;BMP280;62699;50.534;12.784;2022-09-02T09:44:00;96792.25;;;21.48
73894;BMP280;62699;50.534;12.784;2022-09-02T09:49:25;96785.88;;;21.87
73894;BMP280;62699;50.534;12.784;2022-09-02T09:54:44;96790.91;;;22.33
73894;BMP280;62699;50.534;12.784;2022-09-02T10:00:28;96798.16;;;21.61
73894;BMP280;62699;50.534;12.784;2022-09-02T10:05:57;96785.22;;;21.54
73894;BMP280;62699;50.534;12.784;2022-09-02T10:11:24;96778.69;;;22.43
73894;BMP280;62699;50.534;12.784;2022-09-02T10:16:51;96775.53;;;21.78
73894;BMP280;62699;50.534;12.784;2022-09-02T10:33:20;96761.28;;;21.80
73894;BMP280;62699;50.534;12.784;2022-09-02T10:38:45;96747.06;;;23.41
73894;BMP280;62699;50.534;12.784;2022-09-02T10:44:28;96751.53;;;23.27
73894;BMP280;62699;50.534;12.784;2022-09-02T10:50:02;96751.91;;;22.87
73894;BMP280;62699;50.534;12.784;2022-09-02T11:01:16;96745.88;;;22.18
73894;BMP280;62699;50.534;12.784;2022-09-02T11:06:39;96743.53;;;22.59
73894;BMP280;62699;50.534;12.784;2022-09-02T11:12:24;96742.47;;;22.98
73894;BMP280;62699;50.534;12.784;2022-09-02T11:17:55;96727.97;;;23.43
73894;BMP280;62699;50.534;12.784;2022-09-02T11:23:40;96737.63;;;21.67
73894;BMP280;62699;50.534;12.784;2022-09-02T11:35:11;96727.44;;;24.12
73894;BMP280;62699;50.534;12.784;2022-09-02T11:40:43;96733.31;;;21.98
73894;BMP280;62699;50.534;12.784;2022-09-02T11:52:00;96724.47;;;21.65
73894;BMP280;62699;50.534;12.784;2022-09-02T11:57:22;96720.63;;;22.20
73894;BMP280;62699;50.534;12.784;2022-09-02T12:02:49;96716.03;;;21.04
73894;BMP280;62699;50.534;12.784;2022-09-02T12:08:13;96703.13;;;20.97
73894;BMP280;62699;50.534;12.784;2022-09-02T12:13:53;96706.72;;;20.50
73894;BMP280;62699;50.534;12.784;2022-09-02T12:24:54;96695.19;;;21.34
73894;BMP280;62699;50.534;12.784;2022-09-02T12:48:17;96675.63;;;23.51
73894;BMP280;62699;50.534;12.784;2022-09-02T12:53:43;96670.63;;;24.26
73894;BMP280;62699;50.534;12.784;2022-09-02T12:59:05;96668.03;;;24.28
73894;BMP280;62699;50.534;12.784;2022-09-02T13:32:38;96647.59;;;21.81
73894;BMP280;62699;50.534;12.784;2022-09-02T13:37:59;96637.13;;;22.76
73894;BMP280;62699;50.534;12.784;2022-09-02T13:43:21;96634.38;;;22.67
73894;BMP280;62699;50.534;12.784;2022-09-02T13:48:41;96639.66;;;21.33
73894;BMP280;62699;50.534;12.784;2022-09-02T13:54:00;96634.56;;;20.71
73894;BMP280;62699;50.534;12.784;2022-09-02T14:00:08;96634.31;;;20.44
73894;BMP280;62699;50.534;12.784;2022-09-02T14:05:21;96627.84;;;21.48
73894;BMP280;62699;50.534;12.784;2022-09-02T14:10:42;96612.69;;;23.17
73894;BMP280;62699;50.534;12.784;2022-09-02T14:16:30;96614.91;;;22.46
73894;BMP280;62699;50.534;12.784;2022-09-02T14:21:55;96608.22;;;23.40
73894;BMP280;62699;50.534;12.784;2022-09-02T14:27:21;96608.94;;;23.22
73894;BMP280;62699;50.534;12.784;2022-09-02T14:32:41;96601.06;;;21.73
73894;BMP280;62699;50.534;12.784;2022-09-02T14:38:00;96595.44;;;21.37
73894;BMP280;62699;50.534;12.784;2022-09-02T14:43:21;96596.59;;;21.51
73894;BMP280;62699;50.534;12.784;2022-09-02T14:48:40;96600.50;;;21.06
73894;BMP280;62699;50.534;12.784;2022-09-02T14:53:59;96597.69;;;21.65
73894;BMP280;62699;50.534;12.784;2022-09-02T14:59:19;96601.97;;;21.41
73894;BMP280;62699;50.534;12.784;2022-09-02T15:04:38;96595.25;;;20.51
73894;BMP280;62699;50.534;12.784;2022-09-02T15:09:57;96591.00;;;20.82
73894;BMP280;62699;50.534;12.784;2022-09-02T15:15:17;96599.75;;;21.05
73894;BMP280;62699;50.534;12.784;2022-09-02T15:20:36;96586.44;;;20.85
73894;BMP280;62699;50.534;12.784;2022-09-02T15:25:56;96586.16;;;20.73
73894;BMP280;62699;50.534;12.784;2022-09-02T15:31:15;96576.56;;;20.89
73894;BMP280;62699;50.534;12.784;2022-09-02T15:36:35;96578.66;;;20.98
73894;BMP280;62699;50.534;12.784;2022-09-02T15:41:54;96569.16;;;21.17
73894;BMP280;62699;50.534;12.784;2022-09-02T15:47:14;96574.97;;;21.21
73894;BMP280;62699;50.534;12.784;2022-09-02T15:52:34;96575.41;;;20.50
73894;BMP280;62699;50.534;12.784;2022-09-02T15:58:15;96578.44;;;20.30
73894;BMP280;62699;50.534;12.784;2022-09-02T16:03:37;96573.28;;;21.08
73894;BMP280;62699;50.534;12.784;2022-09-02T16:08:57;96575.94;;;21.16
73894;BMP280;62699;50.534;12.784;2022-09-02T16:14:17;96569.16;;;20.58
73894;BMP280;62699;50.534;12.784;2022-09-02T16:19:37;96571.25;;;21.08
73894;BMP280;62699;50.534;12.784;2022-09-02T16:24:56;96569.47;;;20.62
73894;BMP280;62699;50.534;12.784;2022-09-02T16:30:15;96574.69;;;20.50
73894;BMP280;62699;50.534;12.784;2022-09-02T16:35:35;96563.41;;;20.71
73894;BMP280;62699;50.534;12.784;2022-09-02T16:40:56;96564.69;;;20.70
73894;BMP280;62699;50.534;12.784;2022-09-02T16:46:23;96564.34;;;20.09
73894;BMP280;62699;50.534;12.784;2022-09-02T16:51:47;96550.78;;;19.31
73894;BMP280;62699;50.534;12.784;2022-09-02T16:57:06;96549.94;;;18.83
73894;BMP280;62699;50.534;12.784;2022-09-02T17:02:26;96546.50;;;18.98
73894;BMP280;62699;50.534;12.784;2022-09-02T17:07:47;96541.75;;;19.06
73894;BMP280;62699;50.534;12.784;2022-09-02T17:13:22;96545.38;;;19.16
73894;BMP280;62699;50.534;12.784;2022-09-02T17:18:41;96543.47;;;19.41
73894;BMP280;62699;50.534;12.784;2022-09-02T17:24:03;96539.84;;;19.31
73894;BMP280;62699;50.534;12.784;2022-09-02T17:29:48;96542.25;;;19.27
73894;BMP280;62699;50.534;12.784;2022-09-02T17:35:10;96543.53;;;19.18
73894;BMP280;62699;50.534;12.784;2022-09-02T17:40:29;96548.44;;;19.12
73894;BMP280;62699;50.534;12.784;2022-09-02T17:46:08;96551.53;;;19.39
73894;BMP280;62699;50.534;12.784;2022-09-02T17:51:35;96555.91;;;19.27
73894;BMP280;62699;50.534;12.784;2022-09-02T17:57:24;96551.75;;;18.96
73894;BMP280;62699;50.534;12.784;2022-09-02T18:25:27;96567.56;;;17.57
73894;BMP280;62699;50.534;12.784;2022-09-02T18:47:55;96580.81;;;16.84
73894;BMP280;62699;50.534;12.784;2022-09-02T18:53:30;96576.88;;;16.17
73894;BMP280;62699;50.534;12.784;2022-09-02T18:59:06;96582.06;;;16.28
73894;BMP280;62699;50.534;12.784;2022-09-02T19:04:32;96584.59;;;16.26
73894;BMP280;62699;50.534;12.784;2022-09-02T19:09:52;96585.31;;;16.60
73894;BMP280;62699;50.534;12.784;2022-09-02T19:15:14;96591.41;;;16.53
73894;BMP280;62699;50.534;12.784;2022-09-02T19:20:34;96591.47;;;16.40
73894;BMP280;62699;50.534;12.784;2022-09-02T19:25:53;96594.03;;;16.25
73894;BMP280;62699;50.534;12.784;2022-09-02T19:31:17;96593.00;;;16.02
73894;BMP280;62699;50.534;12.784;2022-09-02T19:36:54;96606.97;;;16.06
73894;BMP280;62699;50.534;12.784;2022-09-02T19:42:16;96609.72;;;15.93
73894;BMP280;62699;50.534;12.784;2022-09-02T19:47:38;96616.63;;;15.81
73894;BMP280;62699;50.534;12.784;2022-09-02T19:52:57;96623.53;;;15.82
73894;BMP280;62699;50.534;12.784;2022-09-02T19:58:16;96614.09;;;15.56
73894;BMP280;62699;50.534;12.784;2022-09-02T20:03:36;96606.91;;;15.59
73894;BMP280;62699;50.534;12.784;2022-09-02T20:08:55;96615.75;;;15.46
73894;BMP280;62699;50.534;12.784;2022-09-02T20:14:14;96619.59;;;15.38
73894;BMP280;62699;50.534;12.784;2022-09-02T20:19:34;96621.06;;;15.07
73894;BMP280;62699;50.534;12.784;2022-09-02T20:24:53;96622.13;;;15.04
73894;BMP280;62699;50.534;12.784;2022-09-02T20:30:15;96625.81;;;14.88
73894;BMP280;62699;50.534;12.784;2022-09-02T20:57:51;96621.91;;;14.08
73894;BMP280;62699;50.534;12.784;2022-09-02T21:21:14;96627.94;;;13.12
73894;BMP280;62699;50.534;12.784;2022-09-02T21:32:14;96623.66;;;12.98
73894;BMP280;62699;50.534;12.784;2022-09-02T21:37:37;96634.50;;;12.40
73894;BMP280;62699;50.534;12.784;2022-09-02T21:48:55;96621.31;;;12.77
73894;BMP280;62699;50.534;12.784;2022-09-02T21:54:33;96608.03;;;12.79
73894;BMP280;62699;50.534;12.784;2022-09-02T22:00:01;96611.50;;;12.74
73894;BMP280;62699;50.534;12.784;2022-09-02T22:11:01;96617.75;;;11.78
73894;BMP280;62699;50.534;12.784;2022-09-02T22:22:19;96613.09;;;11.79
73894;BMP280;62699;50.534;12.784;2022-09-02T22:27:52;96605.97;;;11.59
73894;BMP280;62699;50.534;12.784;2022-09-02T22:33:15;96604.53;;;11.58
73894;BMP280;62699;50.534;12.784;2022-09-02T22:38:38;96611.38;;;11.04
73894;BMP280;62699;50.534;12.784;2022-09-02T22:44:29;96607.72;;;11.18
73894;BMP280;62699;50.534;12.784;2022-09-02T22:50:17;96602.31;;;11.40
73894;BMP280;62699;50.534;12.784;2022-09-02T22:55:59;96599.16;;;11.47
73894;BMP280;62699;50.534;12.784;2022-09-02T23:01:38;96603.31;;;11.15
73894;BMP280;62699;50.534;12.784;2022-09-02T23:07:01;96604.69;;;10.66
73894;BMP280;62699;50.534;12.784;2022-09-02T23:13:01;96611.00;;;10.51
73894;BMP280;62699;50.534;12.784;2022-09-02T23:29:21;96587.34;;;10.83
73894;BMP280;62699;50.534;12.784;2022-09-02T23:40:25;96579.75;;;9.63
73894;BMP280;62699;50.534;12.784;2022-09-02T23:45:46;96569.47;;;10.04
73894;BMP280;62699;50.534;12.784;2022-09-02T23:57:41;96558.97;;;9.70
